Time;durP1;ratioP1;P1;durP2;ratioP2;P2;SDS_P1;SDS_P2;PMS_P1;PMS_P2;Temp;Humidity;BMP_temperature;BMP_pressure;BME280_temperature;BME280_humidity;BME280_pressure;Samples;Min_cycle;Max_cycle;Signal;HPM_P1;HPM_P2
2021/03/16 00:02:06;;;;;;;19.60;1.33;;;6.70;99.90;;;;;;5040929;28;20127;-64
2021/03/16 00:04:32;;;;;;;24.60;2.78;;;6.70;99.90;;;;;;5042386;28;20582;-64
2021/03/16 00:06:57;;;;;;;10.75;1.80;;;6.70;99.90;;;;;;5048277;28;20033;-64
2021/03/16 00:09:23;;;;;;;15.90;2.00;;;6.70;99.90;;;;;;5043876;28;20036;-64
2021/03/16 00:11:49;;;;;;;18.45;2.00;;;6.60;99.90;;;;;;5045610;28;20481;-64
2021/03/16 00:14:14;;;;;;;16.13;2.55;;;6.60;99.90;;;;;;5048148;28;20036;-64
2021/03/16 00:16:40;;;;;;;19.83;2.72;;;6.50;99.90;;;;;;5042736;28;20025;-64
2021/03/16 00:19:05;;;;;;;13.68;1.65;;;6.40;99.90;;;;;;5044282;28;20060;-64
2021/03/16 00:21:31;;;;;;;20.05;2.35;;;6.40;99.90;;;;;;5044129;28;20048;-65
2021/03/16 00:23:56;;;;;;;17.08;1.77;;;6.30;99.90;;;;;;5045210;28;20036;-64
2021/03/16 00:26:22;;;;;;;14.48;2.55;;;6.30;99.90;;;;;;5044890;28;20083;-64
2021/03/16 00:28:48;;;;;;;25.40;1.92;;;6.30;99.90;;;;;;5046829;28;20067;-64
2021/03/16 00:31:13;;;;;;;15.38;2.97;;;6.30;99.90;;;;;;5042125;28;20132;-64
2021/03/16 00:33:39;;;;;;;14.63;1.83;;;6.40;99.90;;;;;;5041864;28;20025;-64
2021/03/16 00:36:05;;;;;;;12.48;2.10;;;6.40;99.90;;;;;;5043293;28;20090;-64
2021/03/16 00:38:30;;;;;;;8.80;1.10;;;6.50;99.90;;;;;;5042686;28;20033;-64
2021/03/16 00:40:56;;;;;;;13.50;2.17;;;6.50;99.90;;;;;;5045165;28;20048;-64
2021/03/16 00:43:21;;;;;;;10.88;1.77;;;6.50;99.90;;;;;;5044087;28;20209;-64
2021/03/16 00:45:47;;;;;;;11.55;1.23;;;6.50;99.90;;;;;;5044659;28;20494;-65
2021/03/16 00:48:17;;;;;;;19.83;2.58;;;6.50;99.90;;;;;;5043163;28;20048;-64
2021/03/16 00:50:43;;;;;;;23.17;2.30;;;6.50;99.90;;;;;;5038065;28;20035;-64
2021/03/16 00:53:09;;;;;;;11.82;1.42;;;6.50;99.90;;;;;;5045318;28;20025;-65
2021/03/16 00:55:36;;;;;;;26.08;1.83;;;6.50;99.90;;;;;;5043488;28;20048;-64
2021/03/16 00:58:03;;;;;;;13.02;3.70;;;6.50;99.90;;;;;;5044762;28;20044;-65
2021/03/16 01:00:28;;;;;;;7.45;1.50;;;6.50;99.90;;;;;;5044721;28;20052;-64
2021/03/16 01:02:54;;;;;;;13.80;2.60;;;6.50;99.90;;;;;;5042263;28;20037;-64
2021/03/16 01:05:19;;;;;;;13.63;2.40;;;6.50;99.90;;;;;;5040520;28;20029;-64
2021/03/16 01:07:45;;;;;;;11.18;2.15;;;6.50;99.90;;;;;;5041864;28;20378;-64
2021/03/16 01:10:16;;;;;;;18.95;2.88;;;6.50;99.90;;;;;;5044000;28;20372;-64
2021/03/16 01:12:43;;;;;;;20.60;2.40;;;6.60;99.90;;;;;;5038299;28;20556;-64
2021/03/16 01:15:09;;;;;;;14.55;2.08;;;6.50;99.90;;;;;;5041751;28;20039;-65
2021/03/16 01:17:36;;;;;;;12.18;1.77;;;6.50;99.90;;;;;;5040412;28;20609;-64
2021/03/16 01:20:14;;;;;;;19.40;1.98;;;6.50;99.90;;;;;;5041277;28;20082;-64
2021/03/16 01:22:40;;;;;;;17.52;1.95;;;6.50;99.90;;;;;;5038885;28;20489;-64
2021/03/16 01:25:06;;;;;;;12.63;1.27;;;6.50;99.90;;;;;;5039040;28;20083;-64
2021/03/16 01:27:32;;;;;;;8.20;1.20;;;6.50;99.90;;;;;;5043213;28;20043;-64
2021/03/16 01:29:57;;;;;;;17.45;2.00;;;6.50;99.90;;;;;;5039231;28;20029;-64
2021/03/16 01:32:23;;;;;;;12.90;1.40;;;6.50;99.90;;;;;;5044245;28;20371;-65
2021/03/16 01:34:49;;;;;;;16.45;3.22;;;6.50;99.90;;;;;;5042159;28;20537;-64
2021/03/16 01:37:14;;;;;;;23.23;2.10;;;6.50;99.90;;;;;;5046694;28;20059;-64
2021/03/16 01:39:40;;;;;;;12.05;1.60;;;6.50;99.90;;;;;;5044117;28;20082;-64
2021/03/16 01:42:05;;;;;;;10.10;3.97;;;6.50;99.90;;;;;;5046101;28;20029;-64
2021/03/16 01:44:31;;;;;;;17.90;2.15;;;6.50;99.90;;;;;;5047700;28;20052;-65
2021/03/16 01:46:59;;;;;;;20.70;1.55;;;6.40;99.90;;;;;;5043832;28;20059;-64
2021/03/16 01:49:25;;;;;;;11.68;1.33;;;6.40;99.90;;;;;;5043043;28;20577;-64
2021/03/16 01:51:50;;;;;;;18.15;2.53;;;6.40;99.90;;;;;;5047490;28;20036;-64
2021/03/16 01:54:16;;;;;;;11.23;2.17;;;6.40;99.90;;;;;;5045182;28;20722;-64
2021/03/16 01:56:43;;;;;;;20.80;3.20;;;6.40;99.90;;;;;;5045044;28;20044;-64
2021/03/16 01:59:15;;;;;;;21.60;2.53;;;6.40;99.90;;;;;;5045350;28;20038;-64
2021/03/16 02:01:42;;;;;;;20.00;2.45;;;6.40;99.90;;;;;;5044263;28;20044;-65
2021/03/16 02:04:08;;;;;;;9.07;1.33;;;6.40;99.90;;;;;;5042531;28;20255;-64
2021/03/16 02:07:05;;;;;;;17.50;2.50;;;6.40;99.90;;;;;;5041415;28;20040;-64
2021/03/16 02:09:43;;;;;;;10.50;1.40;;;6.30;99.90;;;;;;5042631;28;20033;-63
2021/03/16 02:12:19;;;;;;;14.60;2.17;;;6.30;99.90;;;;;;5044817;28;20040;-63
2021/03/16 02:14:49;;;;;;;33.95;2.75;;;6.40;99.90;;;;;;5043951;28;20406;-64
2021/03/16 02:17:22;;;;;;;15.15;2.03;;;6.30;99.90;;;;;;5040665;28;20661;-64
2021/03/16 02:20:19;;;;;;;10.30;1.63;;;6.40;99.90;;;;;;5042595;28;20042;-63
2021/03/16 02:22:47;;;;;;;22.95;3.53;;;6.40;99.90;;;;;;5043574;28;20044;-64
2021/03/16 02:25:40;;;;;;;14.15;3.35;;;6.40;99.90;;;;;;5043548;28;20036;-64
2021/03/16 02:28:42;;;;;;;18.08;2.17;;;6.40;99.90;;;;;;5039583;28;20033;-63
2021/03/16 02:31:11;;;;;;;10.55;1.17;;;6.40;99.90;;;;;;5043027;28;20051;-64
2021/03/16 02:33:39;;;;;;;12.75;1.85;;;6.30;99.90;;;;;;5043226;28;20558;-63
2021/03/16 02:36:05;;;;;;;11.13;2.15;;;6.30;99.90;;;;;;5042775;28;20085;-64
2021/03/16 02:38:36;;;;;;;26.60;2.90;;;6.30;99.90;;;;;;5042528;28;20494;-64
2021/03/16 02:41:05;;;;;;;15.13;2.10;;;6.30;99.90;;;;;;5042726;28;20031;-63
2021/03/16 02:43:31;;;;;;;15.70;1.80;;;6.30;99.90;;;;;;5042912;28;20086;-64
2021/03/16 02:45:57;;;;;;;19.35;2.67;;;6.30;99.90;;;;;;5042184;28;20041;-64
2021/03/16 02:48:25;;;;;;;17.38;1.60;;;6.30;99.90;;;;;;5045743;28;20515;-64
2021/03/16 02:50:51;;;;;;;11.25;1.70;;;6.20;99.90;;;;;;5043751;28;20033;-64
2021/03/16 02:53:17;;;;;;;9.20;1.50;;;6.20;99.90;;;;;;5043555;28;20041;-64
2021/03/16 02:55:44;;;;;;;15.48;1.70;;;6.30;99.90;;;;;;5041039;28;20106;-64
2021/03/16 02:58:11;;;;;;;15.57;2.53;;;6.30;99.90;;;;;;5044867;28;20060;-63
2021/03/16 03:00:38;;;;;;;10.52;2.17;;;6.20;99.90;;;;;;5043776;28;20103;-63
2021/03/16 03:03:05;;;;;;;11.60;1.95;;;6.20;99.90;;;;;;5039680;28;20025;-63
2021/03/16 03:05:33;;;;;;;15.30;2.10;;;6.10;99.90;;;;;;5044129;28;20037;-64
2021/03/16 03:07:58;;;;;;;17.13;1.52;;;6.10;99.90;;;;;;5044943;28;20033;-64
2021/03/16 03:10:24;;;;;;;11.60;1.65;;;6.00;99.90;;;;;;5043806;28;20029;-64
2021/03/16 03:12:52;;;;;;;22.05;2.80;;;6.00;99.90;;;;;;5042867;28;20083;-64
2021/03/16 03:15:17;;;;;;;19.70;1.52;;;6.00;99.90;;;;;;5045486;28;20121;-64
2021/03/16 03:17:43;;;;;;;14.32;1.80;;;5.90;99.90;;;;;;5044235;28;20123;-64
2021/03/16 03:20:11;;;;;;;13.23;1.63;;;5.90;99.90;;;;;;5054374;22;20057;-66
2021/03/16 03:23:02;;;;;;;23.17;3.13;;;5.80;99.90;;;;;;5030763;28;20059;-66
2021/03/16 03:25:32;;;;;;;11.73;1.95;;;5.80;99.90;;;;;;5033254;28;20488;-65
2021/03/16 03:28:04;;;;;;;19.95;1.90;;;5.80;99.90;;;;;;5029523;28;20087;-66
2021/03/16 03:30:31;;;;;;;17.98;2.03;;;5.70;99.90;;;;;;5028325;28;20030;-65
2021/03/16 03:33:02;;;;;;;10.18;1.73;;;5.70;99.90;;;;;;5017187;28;20124;-66
2021/03/16 03:35:37;;;;;;;;;;;5.80;99.90;;;;;;5010853;28;20038;-66
2021/03/16 03:38:04;;;;;;;24.80;2.97;;;5.80;99.90;;;;;;5014272;28;20011;-66
2021/03/16 03:40:31;;;;;;;20.90;1.90;;;5.90;99.90;;;;;;5008895;28;20116;-65
2021/03/16 03:43:00;;;;;;;16.40;2.75;;;5.90;99.90;;;;;;5012302;28;20030;-65
2021/03/16 03:45:28;;;;;;;20.73;2.90;;;5.90;99.90;;;;;;5015780;28;20026;-68
2021/03/16 03:48:00;;;;;;;12.07;1.60;;;6.00;99.90;;;;;;5014911;28;20075;-65
2021/03/16 03:50:26;;;;;;;21.58;2.17;;;6.00;99.90;;;;;;5012246;28;20149;-66
2021/03/16 03:52:53;;;;;;;14.45;2.60;;;6.10;99.90;;;;;;5013245;28;20030;-66
2021/03/16 03:55:20;;;;;;;20.50;2.47;;;6.10;99.90;;;;;;5015210;28;20072;-66
2021/03/16 03:57:48;;;;;;;18.52;2.25;;;6.20;99.90;;;;;;5013669;28;20030;-65
2021/03/16 04:00:15;;;;;;;17.17;2.38;;;6.20;99.90;;;;;;5008559;28;20132;-66
2021/03/16 04:02:41;;;;;;;12.95;2.67;;;6.20;99.90;;;;;;5014165;28;20045;-65
2021/03/16 04:05:13;;;;;;;12.90;2.22;;;6.30;99.90;;;;;;5012867;28;20398;-65
2021/03/16 04:07:40;;;;;;;23.45;3.13;;;6.30;99.90;;;;;;5011602;28;20113;-65
2021/03/16 04:10:10;;;;;;;19.40;2.65;;;6.30;99.90;;;;;;5011258;28;20057;-66
2021/03/16 04:12:37;;;;;;;13.93;2.38;;;6.30;99.90;;;;;;5016113;28;20042;-67
2021/03/16 04:15:14;;;;;;;16.10;1.42;;;6.30;99.90;;;;;;5031077;28;20040;-67
2021/03/16 04:17:41;;;;;;;16.45;2.40;;;6.30;99.90;;;;;;5025366;28;20052;-67
2021/03/16 04:20:08;;;;;;;14.85;2.20;;;6.30;99.90;;;;;;5016160;28;20057;-65
2021/03/16 04:22:35;;;;;;;18.60;1.92;;;6.20;99.90;;;;;;5011969;28;20482;-65
2021/03/16 04:25:00;;;;;;;17.90;3.22;;;6.30;99.90;;;;;;5012182;28;20025;-66
2021/03/16 04:27:26;;;;;;;19.58;1.77;;;6.30;99.90;;;;;;5011457;28;20454;-66
2021/03/16 04:29:52;;;;;;;20.50;2.97;;;6.30;99.90;;;;;;5011927;28;20425;-65
2021/03/16 04:32:19;;;;;;;17.23;1.98;;;6.30;99.90;;;;;;5007896;28;20045;-65
2021/03/16 04:34:45;;;;;;;17.63;2.78;;;6.30;99.90;;;;;;5010475;28;20411;-66
2021/03/16 04:37:11;;;;;;;11.05;1.75;;;6.30;99.90;;;;;;5009319;28;20141;-66
2021/03/16 04:39:37;;;;;;;9.48;1.13;;;6.40;99.90;;;;;;5011783;28;20034;-65
2021/03/16 04:42:03;;;;;;;18.50;1.88;;;6.30;99.90;;;;;;5011621;28;20042;-66
2021/03/16 04:44:28;;;;;;;17.23;2.17;;;6.40;99.90;;;;;;5014603;28;20113;-66
2021/03/16 04:46:54;;;;;;;23.77;2.30;;;6.30;99.90;;;;;;5012454;28;20633;-66
2021/03/16 04:49:19;;;;;;;8.75;1.40;;;6.30;99.90;;;;;;5009063;28;20033;-65
2021/03/16 04:51:45;;;;;;;16.95;1.70;;;6.30;99.90;;;;;;5012231;28;20038;-66
2021/03/16 04:54:11;;;;;;;22.15;1.63;;;6.30;99.90;;;;;;5011354;28;20036;-66
2021/03/16 04:56:37;;;;;;;25.25;2.47;;;6.30;99.90;;;;;;5011348;28;20057;-65
2021/03/16 04:59:03;;;;;;;16.70;2.70;;;6.30;99.90;;;;;;5010889;28;20042;-65
2021/03/16 05:01:28;;;;;;;17.08;3.38;;;6.20;99.90;;;;;;5013733;28;20029;-65
2021/03/16 05:03:54;;;;;;;20.23;2.80;;;6.30;99.90;;;;;;5012856;28;20083;-66
2021/03/16 05:06:20;;;;;;;19.02;3.28;;;6.20;99.90;;;;;;5011091;28;20033;-65
2021/03/16 05:08:45;;;;;;;16.17;2.15;;;6.20;99.90;;;;;;5014002;28;20037;-65
2021/03/16 05:11:11;;;;;;;27.35;2.97;;;6.20;99.90;;;;;;5009111;28;20321;-66
2021/03/16 05:13:37;;;;;;;16.10;1.80;;;6.20;99.90;;;;;;5012807;28;20044;-66
2021/03/16 05:16:02;;;;;;;22.30;2.92;;;6.20;99.90;;;;;;5012700;28;20493;-66
2021/03/16 05:18:28;;;;;;;17.38;2.15;;;6.20;99.90;;;;;;5017410;28;20041;-65
2021/03/16 05:20:54;;;;;;;15.02;2.13;;;6.20;99.90;;;;;;5008755;28;20037;-66
2021/03/16 05:23:20;;;;;;;18.20;2.00;;;6.20;99.90;;;;;;5010971;28;20065;-66
2021/03/16 05:25:46;;;;;;;24.95;2.17;;;6.20;99.90;;;;;;5012496;28;20508;-66
2021/03/16 05:28:12;;;;;;;16.48;2.28;;;6.20;99.90;;;;;;5010539;28;20046;-65
2021/03/16 05:30:37;;;;;;;10.50;1.85;;;6.30;99.90;;;;;;5008472;28;20572;-66
2021/03/16 05:33:03;;;;;;;19.67;2.65;;;6.30;99.90;;;;;;5008900;28;20034;-66
2021/03/16 05:35:30;;;;;;;11.27;1.75;;;6.30;99.90;;;;;;5008704;28;20037;-65
2021/03/16 05:37:56;;;;;;;15.38;2.72;;;6.30;99.90;;;;;;5008471;28;20121;-66
2021/03/16 05:40:24;;;;;;;11.70;1.75;;;6.30;99.90;;;;;;5008003;28;20137;-66
2021/03/16 05:42:51;;;;;;;13.88;2.00;;;6.30;99.90;;;;;;5010727;28;20053;-65
2021/03/16 05:45:17;;;;;;;16.48;3.47;;;6.30;99.90;;;;;;5011100;28;20119;-66
2021/03/16 05:47:44;;;;;;;20.80;2.90;;;6.40;99.90;;;;;;5008485;28;20061;-65
2021/03/16 05:50:10;;;;;;;16.42;2.97;;;6.40;99.90;;;;;;5009080;28;20026;-65
2021/03/16 05:52:36;;;;;;;19.40;2.50;;;6.30;99.90;;;;;;5014447;28;20038;-66
2021/03/16 05:55:03;;;;;;;22.23;2.58;;;6.40;99.90;;;;;;5007634;28;20311;-65
2021/03/16 05:57:29;;;;;;;13.55;3.13;;;6.40;99.90;;;;;;5009952;28;20038;-65
2021/03/16 05:59:55;;;;;;;23.10;2.95;;;6.40;99.90;;;;;;5004559;28;20022;-66
2021/03/16 06:02:20;;;;;;;10.65;1.90;;;6.40;99.90;;;;;;5008928;28;20040;-66
2021/03/16 06:04:46;;;;;;;18.40;3.25;;;6.40;99.90;;;;;;5009328;28;20034;-65
2021/03/16 06:07:13;;;;;;;12.90;2.03;;;6.40;99.90;;;;;;5006932;28;20046;-66
2021/03/16 06:09:39;;;;;;;16.52;2.25;;;6.40;99.90;;;;;;5005574;28;20052;-65
2021/03/16 06:12:05;;;;;;;12.57;1.58;;;6.50;99.90;;;;;;5005548;28;20116;-66
2021/03/16 06:14:32;;;;;;;10.10;1.55;;;6.50;99.90;;;;;;5017219;28;20034;-65
2021/03/16 06:16:58;;;;;;;15.32;1.70;;;6.50;99.90;;;;;;5004522;28;20042;-66
2021/03/16 06:19:31;;;;;;;12.80;1.83;;;6.50;99.90;;;;;;5008683;28;20111;-65
2021/03/16 06:22:05;;;;;;;21.75;2.45;;;6.50;99.90;;;;;;5009496;28;20042;-66
2021/03/16 06:24:31;;;;;;;12.55;1.60;;;6.50;99.90;;;;;;5014148;28;20398;-65
2021/03/16 06:26:58;;;;;;;16.95;1.60;;;6.50;99.90;;;;;;5009942;28;20034;-66
2021/03/16 06:29:24;;;;;;;26.85;2.53;;;6.40;99.90;;;;;;5013963;28;20405;-65
2021/03/16 06:31:51;;;;;;;17.83;1.75;;;6.50;99.90;;;;;;5007130;28;20042;-65
2021/03/16 06:34:24;;;;;;;15.85;2.38;;;6.40;99.90;;;;;;5012534;28;20026;-66
2021/03/16 06:37:00;;;;;;;18.30;2.00;;;6.40;99.90;;;;;;5010202;28;20438;-66
2021/03/16 06:39:27;;;;;;;15.98;2.25;;;6.40;99.90;;;;;;5016366;28;20486;-66
2021/03/16 06:41:54;;;;;;;18.13;2.15;;;6.40;99.90;;;;;;5015835;28;20122;-66
2021/03/16 06:44:21;;;;;;;13.68;1.63;;;6.50;99.90;;;;;;5017787;28;20053;-68
2021/03/16 06:46:58;;;;;;;19.15;2.63;;;6.50;99.90;;;;;;5021553;28;20494;-66
2021/03/16 06:49:26;;;;;;;18.23;2.25;;;6.50;99.90;;;;;;5018165;28;20041;-66
2021/03/16 06:51:54;;;;;;;27.10;2.85;;;6.50;99.90;;;;;;5010325;28;20049;-66
2021/03/16 06:54:24;;;;;;;17.95;1.65;;;6.60;99.90;;;;;;5009185;28;20489;-65
2021/03/16 06:56:58;;;;;;;13.00;1.70;;;6.60;99.90;;;;;;5012124;28;20034;-66
2021/03/16 06:59:28;;;;;;;14.50;2.28;;;6.70;99.90;;;;;;5009553;28;20273;-65
2021/03/16 07:01:54;;;;;;;17.42;1.67;;;6.80;99.90;;;;;;5007037;28;20101;-66
2021/03/16 07:04:22;;;;;;;26.55;3.17;;;6.80;99.90;;;;;;5011930;28;20060;-66
2021/03/16 07:06:48;;;;;;;20.77;2.38;;;6.90;99.90;;;;;;5011088;28;20033;-66
2021/03/16 07:09:16;;;;;;;21.92;3.38;;;6.90;99.90;;;;;;5009667;28;20038;-66
2021/03/16 07:11:46;;;;;;;14.82;1.95;;;7.00;99.90;;;;;;5010451;28;20038;-66
2021/03/16 07:14:13;;;;;;;11.50;2.03;;;7.00;99.90;;;;;;5014179;28;20086;-66
2021/03/16 07:16:40;;;;;;;13.10;1.38;;;7.00;99.90;;;;;;5009891;28;20029;-66
2021/03/16 07:19:07;;;;;;;17.17;2.90;;;7.10;99.90;;;;;;5013454;28;20383;-67
2021/03/16 07:21:38;;;;;;;13.77;1.98;;;7.10;99.90;;;;;;5008785;28;20092;-65
2021/03/16 07:24:11;;;;;;;15.70;2.75;;;7.00;99.90;;;;;;5012430;28;20041;-66
2021/03/16 07:26:38;;;;;;;15.13;1.63;;;7.10;99.90;;;;;;5011537;28;20033;-66
2021/03/16 07:29:07;;;;;;;6.80;1.88;;;7.10;99.90;;;;;;5009303;28;20034;-66
2021/03/16 07:31:38;;;;;;;16.23;1.85;;;7.20;99.90;;;;;;5010493;28;20092;-66
2021/03/16 07:34:05;;;;;;;14.32;1.73;;;7.20;99.90;;;;;;5012264;28;20041;-66
2021/03/16 07:36:36;;;;;;;11.38;1.45;;;7.20;99.90;;;;;;5011617;28;20057;-66
2021/03/16 07:39:04;;;;;;;24.33;2.15;;;7.30;99.90;;;;;;5009621;28;20494;-66
2021/03/16 07:41:31;;;;;;;19.00;3.15;;;7.20;99.90;;;;;;5010367;28;20438;-66
2021/03/16 07:44:08;;;;;;;14.15;2.25;;;7.20;99.90;;;;;;5006709;28;20057;-66
2021/03/16 07:47:00;;;;;;;15.73;2.80;;;7.30;99.90;;;;;;5012180;28;20076;-65
2021/03/16 07:49:31;;;;;;;14.95;1.45;;;7.30;99.90;;;;;;5006930;28;20129;-66
2021/03/16 07:51:57;;;;;;;16.42;2.88;;;7.40;99.90;;;;;;5010987;28;20029;-65
2021/03/16 07:54:30;;;;;;;13.13;1.83;;;7.30;99.90;;;;;;5011914;28;20038;-66
2021/03/16 07:56:59;;;;;;;27.98;2.90;;;7.30;99.90;;;;;;5008562;28;20034;-66
2021/03/16 07:59:32;;;;;;;23.77;3.60;;;7.40;99.90;;;;;;5007714;28;20045;-66
2021/03/16 08:01:58;;;;;;;14.65;2.28;;;7.50;99.90;;;;;;5010836;28;20065;-65
2021/03/16 08:04:32;;;;;;;20.20;2.47;;;7.50;99.90;;;;;;5009809;28;20124;-66
2021/03/16 08:07:00;;;;;;;17.45;2.75;;;7.50;99.90;;;;;;5011920;28;20046;-66
2021/03/16 08:09:25;;;;;;;15.32;1.75;;;7.50;99.90;;;;;;5021949;28;20034;-67
2021/03/16 08:11:51;;;;;;;17.98;2.22;;;7.50;99.90;;;;;;5020489;28;20033;-67
2021/03/16 08:14:29;;;;;;;15.82;1.90;;;7.60;99.90;;;;;;5026075;28;20042;-67
2021/03/16 08:16:55;;;;;;;17.52;2.60;;;7.60;99.90;;;;;;5010733;28;20033;-66
2021/03/16 08:19:34;;;;;;;10.25;1.75;;;7.60;99.90;;;;;;5009692;28;20046;-66
2021/03/16 08:21:59;;;;;;;16.13;2.92;;;7.60;99.90;;;;;;5008835;28;20133;-66
2021/03/16 08:24:39;;;;;;;19.55;1.70;;;7.60;99.90;;;;;;5008351;28;20128;-66
2021/03/16 08:27:14;;;;;;;17.37;1.97;;;7.70;99.90;;;;;;5005638;28;20540;-66
2021/03/16 08:29:50;;;;;;;9.30;1.73;;;7.80;99.90;;;;;;5014639;28;20410;-66
2021/03/16 08:32:18;;;;;;;9.93;1.48;;;7.80;99.90;;;;;;5006854;28;20038;-66
2021/03/16 08:34:46;;;;;;;14.25;1.95;;;7.90;99.90;;;;;;5009327;28;20448;-66
2021/03/16 08:37:33;;;;;;;13.20;1.33;;;8.00;99.90;;;;;;5011639;28;20402;-66
2021/03/16 08:39:59;;;;;;;12.05;2.45;;;8.10;99.90;;;;;;5007382;28;20032;-66
2021/03/16 08:42:27;;;;;;;17.92;1.92;;;8.10;99.90;;;;;;5010279;28;20494;-66
2021/03/16 08:44:54;;;;;;;14.00;2.08;;;8.10;99.90;;;;;;5009309;28;20490;-66
2021/03/16 08:47:22;;;;;;;12.27;2.08;;;8.10;99.90;;;;;;5008007;28;20044;-66
2021/03/16 08:49:50;;;;;;;18.63;2.20;;;8.00;99.90;;;;;;5007524;28;20030;-66
2021/03/16 08:52:19;;;;;;;10.10;1.50;;;8.00;99.90;;;;;;5008558;28;20113;-66
2021/03/16 08:54:45;;;;;;;10.55;1.60;;;8.00;99.90;;;;;;5013526;28;20120;-66
2021/03/16 08:57:22;;;;;;;18.50;2.65;;;7.90;99.90;;;;;;5009252;28;20052;-65
2021/03/16 08:59:49;;;;;;;13.30;2.00;;;7.90;99.90;;;;;;5008707;28;20033;-66
2021/03/16 09:02:36;;;;;;;13.43;1.20;;;7.90;99.90;;;;;;5008890;28;20828;-66
2021/03/16 09:05:03;;;;;;;11.18;1.23;;;7.90;99.90;;;;;;5009744;28;20026;-66
2021/03/16 09:07:33;;;;;;;7.63;1.23;;;7.80;99.90;;;;;;5010456;28;20032;-66
2021/03/16 09:10:10;;;;;;;4.82;0.65;;;7.80;99.90;;;;;;5010143;28;20397;-66
2021/03/16 09:12:41;;;;;;;7.65;1.33;;;7.80;99.90;;;;;;5009221;28;20522;-66
2021/03/16 09:15:11;;;;;;;;;;;7.80;99.90;;;;;;5008953;28;20034;-66
2021/03/16 09:17:39;;;;;;;11.57;2.13;;;7.80;99.90;;;;;;5013168;28;20007;-66
2021/03/16 09:20:24;;;;;;;8.80;0.90;;;7.90;99.90;;;;;;5007124;28;20297;-66
2021/03/16 09:23:01;;;;;;;4.30;0.70;;;7.90;99.90;;;;;;5027573;28;20044;-66
2021/03/16 09:25:37;;;;;;;9.43;0.80;;;7.90;99.90;;;;;;5008617;28;20030;-66
2021/03/16 09:28:05;;;;;;;6.35;0.77;;;7.80;99.90;;;;;;5012028;28;20518;-66
2021/03/16 09:30:49;;;;;;;5.63;0.70;;;7.80;99.90;;;;;;5009676;28;20117;-66
2021/03/16 09:33:19;;;;;;;11.90;1.25;;;7.90;99.90;;;;;;5026465;28;20754;-66
2021/03/16 09:35:57;;;;;;;6.45;0.60;;;7.90;99.90;;;;;;5010306;28;20075;-65
2021/03/16 09:38:23;;;;;;;4.20;0.52;;;8.10;99.90;;;;;;5007002;28;20372;-65
2021/03/16 09:40:49;;;;;;;6.35;0.60;;;8.20;99.90;;;;;;5007542;28;20037;-65
2021/03/16 09:43:25;;;;;;;5.38;0.57;;;8.20;99.90;;;;;;5006892;28;20049;-66
2021/03/16 09:45:56;;;;;;;4.88;0.45;;;8.20;99.90;;;;;;5012038;28;20165;-66
2021/03/16 09:48:23;;;;;;;7.22;0.60;;;8.30;99.90;;;;;;5005222;28;20053;-65
2021/03/16 09:50:49;;;;;;;1.85;0.75;;;8.20;99.90;;;;;;5007874;28;20060;-65
2021/03/16 09:53:15;;;;;;;2.38;0.38;;;8.00;99.90;;;;;;5010234;28;20410;-65
2021/03/16 09:55:42;;;;;;;0.55;0.10;;;7.90;99.90;;;;;;5009775;28;20513;-65
2021/03/16 09:58:22;;;;;;;2.72;0.30;;;7.70;99.90;;;;;;5008894;28;20037;-65
2021/03/16 10:00:49;;;;;;;2.83;0.77;;;7.60;99.90;;;;;;5008029;28;20033;-65
2021/03/16 10:03:17;;;;;;;2.10;0.47;;;7.50;99.90;;;;;;5012597;28;20041;-65
2021/03/16 10:05:42;;;;;;;3.65;0.40;;;7.40;99.90;;;;;;5015823;28;20025;-65
2021/03/16 10:08:08;;;;;;;3.20;0.32;;;7.40;99.90;;;;;;5013689;28;20772;-65
2021/03/16 10:10:39;;;;;;;4.55;0.73;;;7.40;99.90;;;;;;5013479;28;20037;-66
2021/03/16 10:13:07;;;;;;;5.00;0.55;;;7.40;99.90;;;;;;5015370;28;20136;-66
2021/03/16 10:15:38;;;;;;;3.05;0.50;;;7.60;99.90;;;;;;5009617;28;20463;-65
2021/03/16 10:18:09;;;;;;;1.58;0.47;;;7.80;99.90;;;;;;5013799;28;20570;-66
2021/03/16 10:20:43;;;;;;;4.05;0.52;;;8.00;99.90;;;;;;5010554;28;20033;-65
2021/03/16 10:23:11;;;;;;;2.08;0.45;;;8.20;99.90;;;;;;5010821;28;20034;-65
2021/03/16 10:25:37;;;;;;;6.82;0.77;;;8.20;99.90;;;;;;5012424;28;20522;-66
2021/03/16 10:28:06;;;;;;;8.10;0.98;;;8.40;99.90;;;;;;5021683;28;20026;-65
2021/03/16 10:30:39;;;;;;;1.48;0.35;;;8.40;99.90;;;;;;5016650;28;20033;-65
2021/03/16 10:33:07;;;;;;;3.17;0.57;;;8.50;99.90;;;;;;5014033;28;20091;-65
2021/03/16 10:35:34;;;;;;;3.95;0.60;;;8.60;99.90;;;;;;5011480;28;20041;-66
2021/03/16 10:38:02;;;;;;;11.95;1.33;;;8.70;99.90;;;;;;5013684;28;20041;-65
2021/03/16 10:40:28;;;;;;;3.13;0.57;;;8.80;99.90;;;;;;5012642;28;20042;-65
2021/03/16 10:42:54;;;;;;;2.53;1.13;;;9.00;99.90;;;;;;5015805;28;20042;-66
2021/03/16 10:45:19;;;;;;;9.02;0.93;;;9.00;99.90;;;;;;5010791;28;20033;-66
2021/03/16 10:47:46;;;;;;;6.53;0.80;;;9.10;99.90;;;;;;5012579;28;20036;-65
2021/03/16 10:50:12;;;;;;;8.98;0.80;;;9.20;99.90;;;;;;5012138;28;20030;-66
2021/03/16 10:52:37;;;;;;;17.55;1.50;;;9.20;99.90;;;;;;5016263;28;20052;-66
2021/03/16 10:55:04;;;;;;;11.63;1.38;;;9.10;99.90;;;;;;5016419;28;20040;-66
2021/03/16 10:57:29;;;;;;;6.28;0.60;;;8.90;99.90;;;;;;5008450;28;20045;-66
2021/03/16 10:59:55;;;;;;;4.78;0.40;;;8.90;99.90;;;;;;5014865;28;20022;-66
2021/03/16 11:02:21;;;;;;;8.32;0.75;;;9.00;99.90;;;;;;5008063;28;20661;-65
2021/03/16 11:04:46;;;;;;;2.67;0.80;;;9.10;99.90;;;;;;5009139;28;20033;-65
2021/03/16 11:07:12;;;;;;;6.15;1.15;;;9.00;99.90;;;;;;5009599;28;20033;-65
2021/03/16 11:09:38;;;;;;;9.60;1.55;;;9.00;99.90;;;;;;5009327;28;20040;-65
2021/03/16 11:12:04;;;;;;;7.70;0.75;;;8.90;99.90;;;;;;5008426;28;20506;-65
2021/03/16 11:14:29;;;;;;;7.40;1.63;;;8.70;99.90;;;;;;5012326;28;20117;-65
2021/03/16 11:16:55;;;;;;;6.05;1.02;;;8.60;99.90;;;;;;5009719;28;20121;-66
2021/03/16 11:19:21;;;;;;;6.03;0.68;;;8.50;99.90;;;;;;5007905;28;20042;-65
2021/03/16 11:21:46;;;;;;;5.03;0.60;;;8.20;99.90;;;;;;5007412;28;20030;-65
2021/03/16 11:24:13;;;;;;;4.88;1.25;;;8.10;99.90;;;;;;5016702;28;20053;-65
2021/03/16 11:26:39;;;;;;;6.55;0.82;;;7.90;99.90;;;;;;5011749;28;20402;-66
2021/03/16 11:29:04;;;;;;;2.60;0.93;;;7.70;99.90;;;;;;5011576;28;20037;-66
2021/03/16 11:31:30;;;;;;;5.65;0.80;;;7.60;99.90;;;;;;5019817;28;20038;-66
2021/03/16 11:33:57;;;;;;;3.13;0.45;;;7.50;99.90;;;;;;5015455;28;20080;-66
2021/03/16 11:36:23;;;;;;;4.00;0.50;;;7.30;99.90;;;;;;5020083;28;20030;-66
2021/03/16 11:38:49;;;;;;;4.32;0.57;;;7.30;99.90;;;;;;5019559;28;20038;-66
2021/03/16 11:41:15;;;;;;;4.10;1.17;;;7.30;99.90;;;;;;5008356;28;20478;-66
2021/03/16 11:43:40;;;;;;;4.80;1.02;;;7.30;99.90;;;;;;5008854;28;20030;-66
2021/03/16 11:46:06;;;;;;;1.75;0.30;;;7.20;99.90;;;;;;5005807;28;20038;-66
2021/03/16 11:48:31;;;;;;;4.78;0.73;;;7.30;99.90;;;;;;5011907;28;20049;-66
2021/03/16 11:50:57;;;;;;;6.97;0.70;;;7.30;99.90;;;;;;5020768;28;20038;-66
2021/03/16 11:53:23;;;;;;;5.05;0.65;;;7.30;99.90;;;;;;5019791;28;20061;-66
2021/03/16 11:55:48;;;;;;;2.90;0.50;;;7.30;99.90;;;;;;5016819;28;20092;-66
2021/03/16 11:58:15;;;;;;;2.30;0.40;;;7.30;99.90;;;;;;5017617;28;20497;-66
2021/03/16 12:00:41;;;;;;;5.57;0.82;;;7.30;99.90;;;;;;5009839;28;20033;-66
2021/03/16 12:03:07;;;;;;;6.63;1.40;;;7.30;99.90;;;;;;5021807;28;20073;-65
2021/03/16 12:05:33;;;;;;;1.85;0.68;;;7.40;99.90;;;;;;5018768;28;20066;-65
2021/03/16 12:07:58;;;;;;;3.88;0.50;;;7.40;99.90;;;;;;5018165;28;20060;-66
2021/03/16 12:10:24;;;;;;;4.70;0.50;;;7.40;99.90;;;;;;5017930;28;20041;-66
2021/03/16 12:12:49;;;;;;;1.15;0.60;;;7.40;99.90;;;;;;5017621;28;20021;-65
2021/03/16 12:15:18;;;;;;;4.57;0.40;;;7.40;99.90;;;;;;5020265;28;20083;-66
2021/03/16 12:17:45;;;;;;;3.05;0.40;;;7.40;99.90;;;;;;5021732;28;20030;-65
2021/03/16 12:20:12;;;;;;;5.68;0.82;;;7.40;99.90;;;;;;5022355;28;20461;-65
2021/03/16 12:22:37;;;;;;;5.25;0.35;;;7.50;99.90;;;;;;5017124;28;20238;-66
2021/03/16 12:25:07;;;;;;;5.15;0.50;;;7.50;99.90;;;;;;5020017;28;20045;-66
2021/03/16 12:27:33;;;;;;;4.35;0.85;;;7.60;99.90;;;;;;5016217;28;20457;-66
2021/03/16 12:29:58;;;;;;;2.67;0.43;;;7.80;99.90;;;;;;5019367;28;20026;-66
2021/03/16 12:32:24;;;;;;;4.25;0.40;;;7.70;99.90;;;;;;5017538;28;20076;-65
2021/03/16 12:34:51;;;;;;;1.55;0.85;;;7.70;99.90;;;;;;5018499;28;20069;-66
2021/03/16 12:37:18;;;;;;;4.25;0.80;;;7.70;99.90;;;;;;5020705;28;20122;-65
2021/03/16 12:39:43;;;;;;;5.53;0.68;;;7.70;99.90;;;;;;5020123;28;20116;-66
2021/03/16 12:42:09;;;;;;;3.08;0.30;;;7.70;99.90;;;;;;5020749;28;20159;-66
2021/03/16 12:44:35;;;;;;;1.38;0.30;;;7.70;99.90;;;;;;5017709;28;20038;-66
2021/03/16 12:47:04;;;;;;;7.97;0.35;;;7.70;99.90;;;;;;5022529;28;20136;-66
2021/03/16 12:49:30;;;;;;;1.63;0.40;;;7.70;99.90;;;;;;5019870;28;20037;-66
2021/03/16 12:51:56;;;;;;;4.53;0.60;;;7.70;99.90;;;;;;5028775;28;20033;-66
2021/03/16 12:54:22;;;;;;;4.07;0.43;;;7.70;99.90;;;;;;5032192;28;20144;-65
2021/03/16 12:56:49;;;;;;;3.60;0.30;;;7.60;99.90;;;;;;5031576;28;20043;-65